Nevada City, CA (95959)

9:00 AM PDT on September 30, 2014 (GMT -0700)
Willow Valley Lodge | Change Station
CLOSE
Current Station
Personal Weather Station
Location: Nevada City, CA
Elevation: 2605 ft
Nearby Weather Stations

Elev 2605 ft 39.27 °N, 121.01 °W | Updated 6 minutes ago

Partly Cloudy
Partly Cloudy
49.8 °F
Feels Like 50 °F
N
0.0
Wind Variable Wind from SSE

Today
High -- | Low -- °F
--% Chance of Precip.
Yesterday
High -- | Low -- °F
Precip. -- in
6:59 AM 6:48 PM
Waxing Crescent, 38% visible
Pressure 30.03 in
Visibility 10.0 miles
Clouds Clear
Windchill 50 °F
Dew Point 50 °F
Humidity 99%
Rainfall 0.00 in
Snow Depth 1 in , 0 in , 1 in
UV 1 out of 12
Pollen 5.20 out of 12
PM2.5 Moderate
Flu Activity Not available.
METAR KGOO 301540Z AUTO 15003KT 10SM CLR 16/09 A3003 RMK AO1

More Conditions Fewer Conditions

Pressure 30.03 in
Visibility 10.0 miles
Clouds Clear
Windchill 50 °F
Dew Point 50 °F
Humidity 99%
Rainfall 0.00 in
Snow Depth 1 in , 0 in , 1 in
UV 1 out of 12
Pollen 5.20 out of 12
PM2.5 Moderate
Flu Activity Not available.
METAR KGOO 301540Z AUTO 15003KT 10SM CLR 16/09 A3003 RMK AO1

More Conditions Fewer Conditions

10-Day Weather Forecast

Almanac

Astronomy

Sep. 30, 2014 Rise Set
Actual Time 6:59 AM PDT 6:48 PM PDT
Civil Twilight 6:32 AM PDT 7:14 PM PDT
Nautical Twilight 6:01 AM PDT 7:45 PM PDT
Astronomical Twilight 5:30 AM PDT 8:17 PM PDT
Moon 1:10 PM PDT 11:25 PM PDT
Length of Visible Light 12h 42m
Length of Day
11h 48m
Tomorrow will be 2m 31s shorter.
Waxing Crescent, 38% of the Moon is Illuminated
Today
Waxing Crescent
Oct 1
First Quarter
Oct 8
Full
Oct 15
Last Quarter
Oct 23
New

Today's Extremes

State Highs State Lows

Community

WunderPhotos

Upload Photos

1,757,675 photos uploaded!

Nearby

Air Quality

  Air Quality AQ Index Pollutant
Yesterday Moderate
PM2.5
Yesterday Good
OZONE
Current Moderate
PM2.5
Tuesday Good
OZONE
Wednesday Moderate
OZONE
Thursday Moderate
OZONE
Friday Moderate
OZONE
Saturday Moderate
OZONE

Snow Depth

Station Depth Elevation
Leavitt Lake 1 in 9400 ft
Fallen Leaf 0 in 6300 ft
Spratt Creek 1 in 6200 ft
Truckee #2 0 in 6400 ft
Squaw Valley 0 in 8200 ft

Earthquake Activity

City Distance Mag. Time & Date
American Canyon, California 101 miles 2.6 12:17 AM PDT
2014-09-29
Minimum magnitude displayed is 2.5.

Coastal Water Temperatures

Place Temperature
No Stations Reporting

Nearby Weather Stations